Illiopolis, Illinois
Current Conditions -  °F | °C
As of 10:54 PM on Sunday 19 Oct 2014 (Local Time) from KDEC Reporting Station
Broken Clouds Broken Clouds  
Wind Chill: 52°   Ceiling: 10000
Heat Index: 52°   Visibility: 10mi
Dew Point: 45°   Wind: 8mph
Humidity: 77%   Direction: 190°S
Pressure: 30.01"   Gusts: NA
Location:  39.85°N, 89.24°W
Report Text: KDEC 200354Z AUTO 19007KT 10SM BKN100 11/07 A3001 RMK AO2 SLP163 T01110072 TSNO
Loading
Personal Weather Stations






























Interactive Weather Map
Tropical Storm Tracking
New forecast layout! Learn more

10-Day Weather Forecast

Advertisements
Track Severe Weather on mobile